Whaley, Texas
Current Conditions -  °F | °C
As of 6:53 PM on Saturday 25 Oct 2014 (Local Time) from KTXK Reporting Station
Clear Clear  
Wind Chill: 75°   Ceiling: Unl
Heat Index: 75°   Visibility: 10mi
Dew Point: 64°   Wind: 5mph
Humidity: 69%   Direction: 220°SW
Pressure: 30.05"   Gusts: NA
Location:  33.4799°N, 94.4582°W
Report Text: KTXK 252353Z 22004KT 10SM CLR 24/18 A3005 RMK AO2 SLP172 T02390178 10289 20239 56006
Loading
Personal Weather Stations






























Interactive Weather Map
Tropical Storm Tracking
New forecast layout! Learn more

10-Day Weather Forecast

Advertisements
Track Severe Weather on mobile